createdAt,value
2016-10-21T04:51:07.412Z,55
2016-10-21T04:52:07.445Z,54
2016-10-21T04:53:08.697Z,54
2016-10-21T04:54:07.283Z,53
2016-10-21T04:55:08.600Z,54
2016-10-21T04:56:08.756Z,53
2016-10-21T04:57:08.614Z,53
2016-10-21T04:58:07.284Z,54
2016-10-21T04:59:07.957Z,53
2016-10-21T05:00:07.362Z,53
2016-10-21T05:01:07.518Z,53
2016-10-21T05:02:08.660Z,53
2016-10-21T05:03:07.598Z,53
2016-10-21T05:04:08.728Z,52
2016-10-21T05:04:25.544Z,52
2016-10-21T05:05:56.068Z,53
2016-10-21T05:06:54.245Z,53
2016-10-21T05:07:54.219Z,52
2016-10-21T05:08:54.225Z,52
2016-10-21T05:09:55.987Z,52
2016-10-21T05:10:56.031Z,56
2016-10-21T05:11:54.182Z,51
2016-10-21T05:12:56.051Z,51
2016-10-21T05:13:56.081Z,51
2016-10-21T05:14:54.264Z,51
2016-10-21T05:15:54.230Z,51
2016-10-21T05:16:55.974Z,51
2016-10-21T05:17:54.206Z,51
2016-10-21T05:18:56.047Z,51
2016-10-21T05:19:56.047Z,51
2016-10-21T05:20:54.244Z,51
2016-10-21T05:21:56.051Z,51
2016-10-21T05:22:54.232Z,51
2016-10-21T05:23:54.230Z,51
2016-10-21T05:24:54.866Z,51
2016-10-21T05:25:55.998Z,51
2016-10-21T05:26:56.128Z,51
2016-10-21T05:27:56.067Z,51
2016-10-21T05:28:54.246Z,51
2016-10-21T05:29:56.415Z,51
2016-10-21T05:30:56.708Z,51
2016-10-21T05:31:56.053Z,50
2016-10-21T05:32:57.647Z,50
2016-10-21T05:33:56.286Z,50
2016-10-21T05:34:58.305Z,50
2016-10-21T05:35:56.095Z,50
2016-10-21T05:36:55.232Z,50
2016-10-21T05:37:56.594Z,50
2016-10-21T05:38:55.984Z,50
2016-10-21T05:39:54.192Z,50
2016-10-21T05:40:54.687Z,50
2016-10-21T05:41:54.215Z,50
2016-10-21T05:42:54.265Z,50
2016-10-21T05:43:55.977Z,50
2016-10-21T05:44:54.265Z,50
2016-10-21T05:45:54.243Z,50
2016-10-21T05:46:55.976Z,50
2016-10-21T05:47:54.275Z,50
2016-10-21T05:48:56.042Z,50
2016-10-21T05:49:54.230Z,50
2016-10-21T05:50:54.251Z,50
2016-10-21T05:51:54.229Z,50
2016-10-21T05:52:54.265Z,50
2016-10-21T05:53:54.230Z,50
2016-10-21T05:54:54.890Z,50
2016-10-21T05:55:55.959Z,49
2016-10-21T05:56:55.996Z,49
2016-10-21T05:57:54.474Z,49
2016-10-21T05:58:54.214Z,49
2016-10-21T05:59:55.950Z,49
2016-10-21T06:00:56.013Z,49
2016-10-21T06:01:56.280Z,49
2016-10-21T06:02:55.975Z,49
2016-10-21T06:03:56.044Z,49
2016-10-21T06:04:56.053Z,49
2016-10-21T06:05:55.969Z,49
2016-10-21T06:06:55.536Z,49
2016-10-21T06:07:56.583Z,49
2016-10-21T06:08:56.751Z,49
2016-10-21T06:09:54.726Z,49
2016-10-21T06:10:57.083Z,49
2016-10-21T06:11:57.032Z,49
2016-10-21T06:12:59.396Z,49
2016-10-21T06:13:56.769Z,49
2016-10-21T06:14:57.799Z,49
2016-10-21T06:15:58.032Z,49
2016-10-21T06:16:56.636Z,49
2016-10-21T06:17:56.733Z,49
2016-10-21T06:18:55.459Z,49
2016-10-21T06:19:57.433Z,49
2016-10-21T06:20:56.205Z,49
2016-10-21T06:21:57.005Z,49
2016-10-21T06:22:56.003Z,49
2016-10-21T06:23:56.927Z,49
2016-10-21T06:24:59.022Z,49
2016-10-21T06:25:54.234Z,49
2016-10-21T06:26:56.065Z,49
2016-10-21T06:27:56.073Z,49
2016-10-21T06:28:56.198Z,49
2016-10-21T06:29:55.991Z,49
2016-10-21T06:30:54.209Z,49
2016-10-21T06:31:56.001Z,49
2016-10-21T06:32:54.237Z,49
2016-10-21T06:33:54.841Z,49
2016-10-21T06:34:56.067Z,49
2016-10-21T06:35:54.215Z,49
2016-10-21T06:36:55.948Z,49
2016-10-21T06:37:54.238Z,49
2016-10-21T06:38:54.237Z,49
2016-10-21T06:39:56.034Z,49
2016-10-21T06:40:55.983Z,49
2016-10-21T06:41:57.363Z,49
2016-10-21T06:42:57.279Z,50
2016-10-21T06:43:56.928Z,49
2016-10-21T06:44:54.911Z,49
2016-10-21T06:47:06.309Z,45
2016-10-21T06:48:05.560Z,47
2016-10-21T06:49:03.578Z,46
2016-10-21T06:50:05.555Z,46
2016-10-21T06:51:03.564Z,47
2016-10-21T06:52:03.519Z,47
2016-10-21T06:53:06.924Z,47
2016-10-21T06:54:03.529Z,46
2016-10-21T06:55:03.532Z,46
2016-10-21T06:56:05.591Z,46
2016-10-21T06:57:05.603Z,46
2016-10-21T06:58:04.508Z,47
2016-10-21T06:59:05.642Z,46
2016-10-21T07:00:06.185Z,47
2016-10-21T07:01:06.157Z,47
2016-10-21T07:02:03.604Z,46
2016-10-21T07:03:03.493Z,47
2016-10-21T07:04:05.559Z,46
2016-10-21T07:05:06.888Z,46
2016-10-21T07:06:03.542Z,46
2016-10-21T07:07:03.553Z,46
2016-10-21T07:08:05.524Z,46
2016-10-21T07:09:06.144Z,47
2016-10-21T07:10:05.560Z,46
2016-10-21T07:11:05.516Z,46
2016-10-21T07:12:03.440Z,45
2016-10-21T07:13:05.592Z,47
2016-10-21T07:14:05.718Z,46
2016-10-21T07:15:03.542Z,46
2016-10-21T07:16:03.515Z,45
2016-10-21T07:17:03.561Z,45
2016-10-21T07:18:05.596Z,45
2016-10-21T07:19:05.574Z,45
2016-10-21T07:20:03.610Z,45
2016-10-21T07:21:03.472Z,45
2016-10-21T07:22:05.583Z,45
2016-10-21T07:23:05.557Z,45
2016-10-21T07:24:03.541Z,45
2016-10-21T07:25:05.511Z,45
2016-10-21T07:26:03.532Z,45
2016-10-21T07:27:03.553Z,45
2016-10-21T07:28:03.551Z,45
2016-10-21T07:29:04.177Z,45
2016-10-21T07:29:32.079Z,45
2016-10-21T07:30:32.094Z,45
2016-10-21T07:31:36.026Z,45
2016-10-21T07:32:34.050Z,45
2016-10-21T07:33:33.922Z,45
2016-10-21T07:34:32.039Z,45
2016-10-21T07:35:31.893Z,45
2016-10-21T07:36:32.559Z,46
2016-10-21T07:40:03.629Z,45
2016-10-21T07:41:03.003Z,46
2016-10-21T07:42:02.667Z,46
2016-10-21T07:43:04.566Z,46
2016-10-21T08:03:31.290Z,46
2016-10-21T08:04:31.204Z,46
2016-10-21T08:05:31.175Z,46
2016-10-21T08:06:29.314Z,46
2016-10-21T08:07:29.321Z,46
2016-10-21T08:08:29.223Z,46
2016-10-21T08:09:29.108Z,46
2016-10-21T08:10:29.237Z,45
2016-10-21T08:11:29.223Z,45
2016-10-21T08:12:29.120Z,44
2016-10-21T08:13:29.099Z,45
2016-10-21T08:14:31.883Z,45
2016-10-21T08:15:29.127Z,45
2016-10-21T08:16:29.203Z,44
2016-10-21T08:17:29.317Z,45
2016-10-21T08:18:31.189Z,45
2016-10-21T08:19:29.904Z,45
2016-10-21T08:20:29.115Z,45
2016-10-21T08:21:31.382Z,46
2016-10-21T08:22:31.558Z,45
2016-10-21T08:23:31.548Z,44
2016-10-21T08:24:30.633Z,43
2016-10-21T08:25:29.388Z,44
2016-10-21T08:26:29.284Z,44
2016-10-21T08:27:31.236Z,44
2016-10-21T08:28:35.136Z,44
2016-10-21T08:29:29.260Z,45
2016-10-21T08:31:43.209Z,44
2016-10-21T08:32:50.188Z,45
2016-10-21T08:33:58.519Z,44
2016-10-21T08:35:04.096Z,45
2016-10-21T08:36:10.665Z,45
2016-10-21T08:37:38.649Z,44
2016-10-21T08:38:36.726Z,45
2016-10-21T08:39:37.008Z,44
2016-10-21T08:40:37.640Z,45
2016-10-21T08:41:41.756Z,45
2016-10-21T08:42:39.941Z,45
2016-10-21T08:43:38.565Z,44
2016-10-21T08:44:39.016Z,44
2016-10-21T08:45:38.301Z,44
2016-10-21T08:46:38.378Z,44
2016-10-21T08:47:36.952Z,44
2016-10-21T08:48:38.450Z,45
2016-10-21T08:49:38.344Z,44
2016-10-21T08:50:36.978Z,44
2016-10-21T08:51:36.666Z,44
2016-10-21T08:52:37.162Z,44
2016-10-21T08:53:37.553Z,49
2016-10-21T08:54:38.411Z,44
2016-10-21T08:55:38.226Z,44
2016-10-21T08:56:37.035Z,44
2016-10-21T08:57:37.052Z,44
2016-10-21T08:58:37.439Z,44
2016-10-21T08:59:38.482Z,44
2016-10-21T09:00:37.049Z,44
2016-10-21T09:01:36.726Z,44
2016-10-21T09:02:36.789Z,44
2016-10-21T09:03:37.191Z,44
2016-10-21T09:04:37.242Z,44
2016-10-21T09:05:36.628Z,44
2016-10-21T09:06:37.033Z,44
2016-10-21T09:07:38.185Z,43
2016-10-21T09:08:38.133Z,42
2016-10-21T09:09:39.513Z,42
2016-10-21T09:10:38.667Z,42
2016-10-21T09:11:36.879Z,41
2016-10-21T09:12:38.333Z,42
2016-10-21T09:13:38.490Z,41
2016-10-21T09:14:36.812Z,41
2016-10-21T09:15:38.220Z,41
2016-10-21T09:16:36.826Z,42
2016-10-21T09:17:37.002Z,41
2016-10-21T09:18:37.511Z,44
2016-10-21T09:19:38.454Z,41
2016-10-21T09:20:37.473Z,41
2016-10-21T09:21:36.754Z,41
2016-10-21T09:22:36.454Z,41
2016-10-21T09:23:38.188Z,41
2016-10-21T09:24:38.788Z,41
2016-10-21T09:25:40.548Z,42
2016-10-21T09:26:39.131Z,42
2016-10-21T09:27:38.694Z,42
2016-10-21T09:28:36.718Z,42
2016-10-21T09:29:37.656Z,42
2016-10-21T09:30:38.285Z,42
2016-10-21T09:31:38.243Z,42
2016-10-21T09:32:38.264Z,42
2016-10-21T09:33:36.508Z,42
2016-10-21T09:34:39.032Z,42
2016-10-21T09:35:38.049Z,42
2016-10-21T09:36:39.341Z,42
2016-10-21T09:37:38.559Z,42
2016-10-21T09:38:39.040Z,42
2016-10-21T09:39:40.597Z,44
2016-10-21T09:40:38.832Z,43
2016-10-21T09:41:40.244Z,45
2016-10-21T09:42:37.187Z,46
2016-10-21T09:43:39.112Z,42
2016-10-21T09:44:39.484Z,43
2016-10-21T09:54:47.104Z,43
2016-10-21T09:55:46.675Z,43
2016-10-21T09:56:46.281Z,43
2016-10-21T09:57:48.687Z,43
2016-10-21T09:58:49.605Z,43
2016-10-21T09:59:46.951Z,43
2016-10-21T10:00:50.868Z,43
2016-10-21T10:01:48.057Z,43
2016-10-21T10:02:45.790Z,43
2016-10-21T10:03:45.661Z,43
2016-10-21T10:04:49.528Z,43
2016-10-21T10:05:49.292Z,44
2016-10-21T10:06:46.255Z,43
2016-10-21T10:07:45.590Z,46
2016-10-21T10:10:51.679Z,43
2016-10-21T10:11:47.250Z,43
2016-10-21T10:12:48.559Z,43
2016-10-21T10:13:48.522Z,44
2016-10-21T10:14:46.717Z,44
2016-10-21T10:15:49.315Z,44
2016-10-21T10:16:46.137Z,46
2016-10-21T10:17:46.090Z,44
2016-10-21T10:18:48.609Z,44
2016-10-21T10:19:46.807Z,44
2016-10-21T10:20:48.552Z,44
2016-10-21T10:21:46.216Z,44
